Warrington, Indiana
Current Conditions -  °F | °C
As of 11:35 AM on Wednesday 26 Nov 2014 (Local Time) from KMQJ Reporting Station
Overcast Overcast  
Wind Chill: -6°   Ceiling: 1800
Heat Index: -1°   Visibility: 10mi
Dew Point: -8°   Wind: 9mph
Humidity: 60%   Direction: 80°E
Pressure: 30.11"   Gusts: NA
Location:  39.9098°N, 85.6325°W
Report Text: KMQJ 261635Z AUTO 08008KT 10SM OVC018 M01/M08 A3011 RMK AO1
Loading
Personal Weather Stations






























Interactive Weather Map New forecast layout! Learn more

10-Day Weather Forecast

Advertisements
Track Severe Weather on mobile